sensor_id;sensor_type;location;lat;lon;timestamp;P1;durP1;ratioP1;P2;durP2;ratioP2
52067;SDS011;60237;52.338;21.228;2023-07-13T00:01:07;117.68;;;100.00;;
52067;SDS011;60237;52.338;21.228;2023-07-13T00:03:34;106.97;;;97.22;;
52067;SDS011;60237;52.338;21.228;2023-07-13T00:06:01;108.78;;;99.20;;
52067;SDS011;60237;52.338;21.228;2023-07-13T00:08:30;104.78;;;96.22;;
52067;SDS011;60237;52.338;21.228;2023-07-13T00:11:02;114.53;;;103.40;;
52067;SDS011;60237;52.338;21.228;2023-07-13T00:13:29;104.30;;;94.72;;
52067;SDS011;60237;52.338;21.228;2023-07-13T00:15:57;118.03;;;103.38;;
52067;SDS011;60237;52.338;21.228;2023-07-13T00:18:24;98.88;;;90.20;;
52067;SDS011;60237;52.338;21.228;2023-07-13T00:20:50;105.25;;;95.38;;
52067;SDS011;60237;52.338;21.228;2023-07-13T00:23:17;97.97;;;89.80;;
52067;SDS011;60237;52.338;21.228;2023-07-13T00:25:45;119.35;;;95.60;;
52067;SDS011;60237;52.338;21.228;2023-07-13T00:28:12;104.60;;;94.57;;
52067;SDS011;60237;52.338;21.228;2023-07-13T00:30:38;127.30;;;109.70;;
52067;SDS011;60237;52.338;21.228;2023-07-13T00:33:05;113.72;;;103.80;;
52067;SDS011;60237;52.338;21.228;2023-07-13T00:35:44;98.50;;;89.13;;
52067;SDS011;60237;52.338;21.228;2023-07-13T00:38:11;106.38;;;97.20;;
52067;SDS011;60237;52.338;21.228;2023-07-13T00:40:39;104.57;;;95.80;;
52067;SDS011;60237;52.338;21.228;2023-07-13T00:43:16;92.38;;;83.30;;
52067;SDS011;60237;52.338;21.228;2023-07-13T00:48:10;92.80;;;84.30;;
52067;SDS011;60237;52.338;21.228;2023-07-13T00:50:37;98.47;;;89.50;;
52067;SDS011;60237;52.338;21.228;2023-07-13T00:53:04;102.70;;;94.22;;
52067;SDS011;60237;52.338;21.228;2023-07-13T00:55:31;95.45;;;86.70;;
52067;SDS011;60237;52.338;21.228;2023-07-13T00:57:58;102.05;;;91.93;;
52067;SDS011;60237;52.338;21.228;2023-07-13T01:00:24;102.22;;;92.25;;
52067;SDS011;60237;52.338;21.228;2023-07-13T01:02:52;102.95;;;93.07;;
52067;SDS011;60237;52.338;21.228;2023-07-13T01:05:20;89.47;;;82.22;;
52067;SDS011;60237;52.338;21.228;2023-07-13T01:07:47;104.82;;;94.25;;
52067;SDS011;60237;52.338;21.228;2023-07-13T01:10:20;99.65;;;90.47;;
52067;SDS011;60237;52.338;21.228;2023-07-13T01:12:48;146.27;;;105.15;;
52067;SDS011;60237;52.338;21.228;2023-07-13T01:18:07;103.72;;;94.97;;
52067;SDS011;60237;52.338;21.228;2023-07-13T01:20:34;105.88;;;96.70;;
52067;SDS011;60237;52.338;21.228;2023-07-13T01:23:05;98.68;;;89.85;;
52067;SDS011;60237;52.338;21.228;2023-07-13T01:25:33;96.70;;;88.60;;
52067;SDS011;60237;52.338;21.228;2023-07-13T01:28:01;104.80;;;94.10;;
52067;SDS011;60237;52.338;21.228;2023-07-13T01:30:27;100.88;;;91.45;;
52067;SDS011;60237;52.338;21.228;2023-07-13T01:32:54;109.80;;;98.97;;
52067;SDS011;60237;52.338;21.228;2023-07-13T01:35:21;96.95;;;87.72;;
52067;SDS011;60237;52.338;21.228;2023-07-13T01:37:47;111.30;;;101.50;;
52067;SDS011;60237;52.338;21.228;2023-07-13T01:40:14;104.05;;;95.25;;
52067;SDS011;60237;52.338;21.228;2023-07-13T01:42:41;135.07;;;105.90;;
52067;SDS011;60237;52.338;21.228;2023-07-13T01:45:11;99.85;;;92.28;;
52067;SDS011;60237;52.338;21.228;2023-07-13T01:47:37;100.63;;;91.50;;
52067;SDS011;60237;52.338;21.228;2023-07-13T01:50:04;95.78;;;87.38;;
52067;SDS011;60237;52.338;21.228;2023-07-13T01:52:31;96.25;;;87.88;;
52067;SDS011;60237;52.338;21.228;2023-07-13T01:54:58;92.38;;;83.88;;
52067;SDS011;60237;52.338;21.228;2023-07-13T01:57:24;95.10;;;85.35;;
52067;SDS011;60237;52.338;21.228;2023-07-13T01:59:51;100.85;;;92.05;;
52067;SDS011;60237;52.338;21.228;2023-07-13T02:02:18;127.40;;;104.88;;
52067;SDS011;60237;52.338;21.228;2023-07-13T02:04:46;121.75;;;108.75;;
52067;SDS011;60237;52.338;21.228;2023-07-13T02:07:13;126.53;;;104.13;;
52067;SDS011;60237;52.338;21.228;2023-07-13T02:09:42;162.73;;;109.72;;
52067;SDS011;60237;52.338;21.228;2023-07-13T02:12:09;111.72;;;100.43;;
52067;SDS011;60237;52.338;21.228;2023-07-13T02:14:37;117.65;;;106.85;;
52067;SDS011;60237;52.338;21.228;2023-07-13T02:17:05;120.38;;;107.93;;
52067;SDS011;60237;52.338;21.228;2023-07-13T02:19:32;115.78;;;104.68;;
52067;SDS011;60237;52.338;21.228;2023-07-13T02:21:59;136.38;;;106.18;;
52067;SDS011;60237;52.338;21.228;2023-07-13T02:24:27;124.18;;;107.00;;
52067;SDS011;60237;52.338;21.228;2023-07-13T02:26:54;113.35;;;102.18;;
52067;SDS011;60237;52.338;21.228;2023-07-13T02:29:21;117.85;;;106.20;;
52067;SDS011;60237;52.338;21.228;2023-07-13T02:31:49;120.40;;;107.07;;
52067;SDS011;60237;52.338;21.228;2023-07-13T02:34:16;122.57;;;104.85;;
52067;SDS011;60237;52.338;21.228;2023-07-13T02:36:44;141.65;;;103.00;;
52067;SDS011;60237;52.338;21.228;2023-07-13T02:39:13;113.80;;;101.88;;
52067;SDS011;60237;52.338;21.228;2023-07-13T02:41:41;113.80;;;101.88;;
52067;SDS011;60237;52.338;21.228;2023-07-13T02:44:08;114.43;;;102.53;;
52067;SDS011;60237;52.338;21.228;2023-07-13T02:46:36;115.82;;;104.55;;
52067;SDS011;60237;52.338;21.228;2023-07-13T02:49:04;118.20;;;99.97;;
52067;SDS011;60237;52.338;21.228;2023-07-13T02:51:31;118.68;;;103.47;;
52067;SDS011;60237;52.338;21.228;2023-07-13T02:54:03;106.28;;;96.07;;
52067;SDS011;60237;52.338;21.228;2023-07-13T02:56:31;106.20;;;96.38;;
52067;SDS011;60237;52.338;21.228;2023-07-13T02:58:59;121.55;;;100.95;;
52067;SDS011;60237;52.338;21.228;2023-07-13T03:01:26;111.22;;;99.25;;
52067;SDS011;60237;52.338;21.228;2023-07-13T03:03:53;158.80;;;103.60;;
52067;SDS011;60237;52.338;21.228;2023-07-13T03:06:21;109.53;;;98.28;;
52067;SDS011;60237;52.338;21.228;2023-07-13T03:08:52;107.75;;;95.75;;
52067;SDS011;60237;52.338;21.228;2023-07-13T03:11:22;107.30;;;96.55;;
52067;SDS011;60237;52.338;21.228;2023-07-13T03:13:55;142.02;;;100.75;;
52067;SDS011;60237;52.338;21.228;2023-07-13T03:16:23;170.25;;;102.72;;
52067;SDS011;60237;52.338;21.228;2023-07-13T03:18:52;184.70;;;106.82;;
52067;SDS011;60237;52.338;21.228;2023-07-13T03:21:22;118.18;;;98.95;;
52067;SDS011;60237;52.338;21.228;2023-07-13T03:23:49;129.20;;;100.88;;
52067;SDS011;60237;52.338;21.228;2023-07-13T03:26:18;119.00;;;105.75;;
52067;SDS011;60237;52.338;21.228;2023-07-13T03:28:46;118.07;;;101.78;;
52067;SDS011;60237;52.338;21.228;2023-07-13T03:31:22;127.43;;;103.25;;
52067;SDS011;60237;52.338;21.228;2023-07-13T03:33:51;171.38;;;108.55;;
52067;SDS011;60237;52.338;21.228;2023-07-13T03:36:19;121.18;;;102.03;;
52067;SDS011;60237;52.338;21.228;2023-07-13T03:38:49;121.18;;;107.00;;
52067;SDS011;60237;52.338;21.228;2023-07-13T03:41:20;119.63;;;106.57;;
52067;SDS011;60237;52.338;21.228;2023-07-13T03:43:48;120.72;;;107.88;;
52067;SDS011;60237;52.338;21.228;2023-07-13T03:46:18;123.80;;;110.57;;
52067;SDS011;60237;52.338;21.228;2023-07-13T03:48:46;184.73;;;114.22;;
52067;SDS011;60237;52.338;21.228;2023-07-13T03:51:14;123.03;;;110.22;;
52067;SDS011;60237;52.338;21.228;2023-07-13T03:53:43;122.45;;;104.60;;
52067;SDS011;60237;52.338;21.228;2023-07-13T03:56:14;122.43;;;110.53;;
52067;SDS011;60237;52.338;21.228;2023-07-13T03:58:44;120.78;;;107.50;;
52067;SDS011;60237;52.338;21.228;2023-07-13T04:01:20;122.30;;;108.70;;
52067;SDS011;60237;52.338;21.228;2023-07-13T04:03:49;163.80;;;114.32;;
52067;SDS011;60237;52.338;21.228;2023-07-13T04:06:20;142.63;;;116.15;;
52067;SDS011;60237;52.338;21.228;2023-07-13T04:08:49;133.98;;;120.40;;
52067;SDS011;60237;52.338;21.228;2023-07-13T04:11:18;136.65;;;122.55;;
52067;SDS011;60237;52.338;21.228;2023-07-13T04:13:45;144.65;;;125.60;;
52067;SDS011;60237;52.338;21.228;2023-07-13T04:16:14;134.73;;;122.38;;
52067;SDS011;60237;52.338;21.228;2023-07-13T04:18:41;157.43;;;131.75;;
52067;SDS011;60237;52.338;21.228;2023-07-13T04:21:09;151.32;;;131.15;;
52067;SDS011;60237;52.338;21.228;2023-07-13T04:23:36;147.68;;;133.32;;
52067;SDS011;60237;52.338;21.228;2023-07-13T04:26:04;150.45;;;135.27;;
52067;SDS011;60237;52.338;21.228;2023-07-13T04:28:32;148.63;;;135.20;;
52067;SDS011;60237;52.338;21.228;2023-07-13T04:31:00;152.60;;;137.13;;
52067;SDS011;60237;52.338;21.228;2023-07-13T04:33:27;146.50;;;134.15;;
52067;SDS011;60237;52.338;21.228;2023-07-13T04:35:55;154.98;;;138.68;;
52067;SDS011;60237;52.338;21.228;2023-07-13T04:38:27;154.75;;;139.95;;
52067;SDS011;60237;52.338;21.228;2023-07-13T04:40:55;156.85;;;142.30;;
52067;SDS011;60237;52.338;21.228;2023-07-13T04:43:23;154.80;;;139.40;;
52067;SDS011;60237;52.338;21.228;2023-07-13T04:45:51;163.50;;;136.98;;
52067;SDS011;60237;52.338;21.228;2023-07-13T04:48:19;149.38;;;134.75;;
52067;SDS011;60237;52.338;21.228;2023-07-13T04:50:47;150.02;;;134.50;;
52067;SDS011;60237;52.338;21.228;2023-07-13T04:53:14;147.15;;;131.57;;
52067;SDS011;60237;52.338;21.228;2023-07-13T04:55:41;150.70;;;136.10;;
52067;SDS011;60237;52.338;21.228;2023-07-13T04:58:09;150.32;;;135.35;;
52067;SDS011;60237;52.338;21.228;2023-07-13T05:00:36;140.05;;;127.13;;
52067;SDS011;60237;52.338;21.228;2023-07-13T05:03:04;164.27;;;123.90;;
52067;SDS011;60237;52.338;21.228;2023-07-13T05:05:32;128.23;;;116.72;;
52067;SDS011;60237;52.338;21.228;2023-07-13T05:08:01;134.40;;;120.47;;
52067;SDS011;60237;52.338;21.228;2023-07-13T05:10:29;135.90;;;121.82;;
52067;SDS011;60237;52.338;21.228;2023-07-13T05:12:56;188.55;;;125.35;;
52067;SDS011;60237;52.338;21.228;2023-07-13T05:15:23;129.27;;;114.78;;
52067;SDS011;60237;52.338;21.228;2023-07-13T05:17:52;202.65;;;115.82;;
52067;SDS011;60237;52.338;21.228;2023-07-13T05:20:19;128.10;;;114.15;;
52067;SDS011;60237;52.338;21.228;2023-07-13T05:22:47;119.63;;;106.18;;
52067;SDS011;60237;52.338;21.228;2023-07-13T05:25:14;119.80;;;107.70;;
52067;SDS011;60237;52.338;21.228;2023-07-13T05:27:41;124.05;;;108.03;;
52067;SDS011;60237;52.338;21.228;2023-07-13T05:30:09;130.20;;;115.95;;
52067;SDS011;60237;52.338;21.228;2023-07-13T05:32:38;123.25;;;111.55;;
52067;SDS011;60237;52.338;21.228;2023-07-13T05:35:05;123.88;;;111.85;;
52067;SDS011;60237;52.338;21.228;2023-07-13T05:37:33;129.98;;;116.88;;
52067;SDS011;60237;52.338;21.228;2023-07-13T05:40:00;657.10;;;154.07;;
52067;SDS011;60237;52.338;21.228;2023-07-13T05:42:29;124.82;;;112.35;;
52067;SDS011;60237;52.338;21.228;2023-07-13T05:44:59;129.48;;;117.20;;
52067;SDS011;60237;52.338;21.228;2023-07-13T05:47:25;121.05;;;111.35;;
52067;SDS011;60237;52.338;21.228;2023-07-13T05:49:52;130.80;;;118.03;;
52067;SDS011;60237;52.338;21.228;2023-07-13T05:52:20;126.05;;;115.10;;
52067;SDS011;60237;52.338;21.228;2023-07-13T05:54:47;143.02;;;115.53;;
52067;SDS011;60237;52.338;21.228;2023-07-13T05:57:14;130.25;;;117.82;;
52067;SDS011;60237;52.338;21.228;2023-07-13T05:59:40;137.20;;;122.88;;
52067;SDS011;60237;52.338;21.228;2023-07-13T06:02:08;460.98;;;143.30;;
52067;SDS011;60237;52.338;21.228;2023-07-13T06:04:40;137.75;;;121.43;;
52067;SDS011;60237;52.338;21.228;2023-07-13T06:19:47;144.70;;;130.02;;
52067;SDS011;60237;52.338;21.228;2023-07-13T06:22:14;148.63;;;134.60;;
52067;SDS011;60237;52.338;21.228;2023-07-13T06:24:40;144.27;;;132.10;;
52067;SDS011;60237;52.338;21.228;2023-07-13T06:27:07;138.60;;;127.15;;
52067;SDS011;60237;52.338;21.228;2023-07-13T06:29:34;139.93;;;128.75;;
52067;SDS011;60237;52.338;21.228;2023-07-13T06:32:01;144.18;;;130.30;;
52067;SDS011;60237;52.338;21.228;2023-07-13T06:34:33;136.32;;;124.80;;
52067;SDS011;60237;52.338;21.228;2023-07-13T06:36:59;142.95;;;129.32;;
52067;SDS011;60237;52.338;21.228;2023-07-13T06:39:26;145.85;;;132.43;;
52067;SDS011;60237;52.338;21.228;2023-07-13T06:41:53;141.07;;;128.55;;
52067;SDS011;60237;52.338;21.228;2023-07-13T06:44:20;144.95;;;133.55;;
52067;SDS011;60237;52.338;21.228;2023-07-13T06:46:47;158.10;;;144.93;;
52067;SDS011;60237;52.338;21.228;2023-07-13T06:49:13;168.85;;;154.85;;
52067;SDS011;60237;52.338;21.228;2023-07-13T06:51:40;149.27;;;138.13;;
52067;SDS011;60237;52.338;21.228;2023-07-13T06:54:07;153.57;;;142.30;;
52067;SDS011;60237;52.338;21.228;2023-07-13T06:56:34;168.13;;;155.43;;
52067;SDS011;60237;52.338;21.228;2023-07-13T06:59:00;331.10;;;175.27;;
52067;SDS011;60237;52.338;21.228;2023-07-13T07:01:27;176.63;;;159.25;;
52067;SDS011;60237;52.338;21.228;2023-07-13T07:03:54;185.13;;;165.38;;
52067;SDS011;60237;52.338;21.228;2023-07-13T07:06:21;189.07;;;174.43;;
52067;SDS011;60237;52.338;21.228;2023-07-13T07:08:51;203.95;;;186.95;;
52067;SDS011;60237;52.338;21.228;2023-07-13T07:11:19;212.77;;;195.20;;
52067;SDS011;60237;52.338;21.228;2023-07-13T07:13:46;208.20;;;188.45;;
52067;SDS011;60237;52.338;21.228;2023-07-13T07:16:13;213.50;;;195.48;;
52067;SDS011;60237;52.338;21.228;2023-07-13T07:18:40;306.48;;;214.27;;
52067;SDS011;60237;52.338;21.228;2023-07-13T07:21:06;243.85;;;222.88;;
52067;SDS011;60237;52.338;21.228;2023-07-13T07:23:33;242.73;;;223.68;;
52067;SDS011;60237;52.338;21.228;2023-07-13T07:26:00;247.50;;;227.20;;
52067;SDS011;60237;52.338;21.228;2023-07-13T07:28:26;256.60;;;235.88;;
52067;SDS011;60237;52.338;21.228;2023-07-13T07:33:44;257.52;;;235.07;;
52067;SDS011;60237;52.338;21.228;2023-07-13T07:36:11;264.50;;;240.15;;
52067;SDS011;60237;52.338;21.228;2023-07-13T07:38:41;260.17;;;239.85;;
52067;SDS011;60237;52.338;21.228;2023-07-13T07:41:08;286.52;;;263.85;;
52067;SDS011;60237;52.338;21.228;2023-07-13T07:43:37;290.33;;;266.40;;
52067;SDS011;60237;52.338;21.228;2023-07-13T07:46:04;319.33;;;284.55;;
52067;SDS011;60237;52.338;21.228;2023-07-13T07:48:31;300.60;;;276.70;;
52067;SDS011;60237;52.338;21.228;2023-07-13T07:50:58;308.60;;;283.15;;
52067;SDS011;60237;52.338;21.228;2023-07-13T07:53:24;300.50;;;274.88;;
52067;SDS011;60237;52.338;21.228;2023-07-13T07:55:51;314.77;;;284.70;;
52067;SDS011;60237;52.338;21.228;2023-07-13T07:58:21;322.58;;;291.63;;
52067;SDS011;60237;52.338;21.228;2023-07-13T08:00:51;326.60;;;293.63;;
52067;SDS011;60237;52.338;21.228;2023-07-13T08:03:23;317.50;;;291.77;;
52067;SDS011;60237;52.338;21.228;2023-07-13T08:05:53;1000.40;;;913.45;;
52067;SDS011;60237;52.338;21.228;2023-07-13T08:08:23;1005.95;;;920.05;;
52067;SDS011;60237;52.338;21.228;2023-07-13T08:10:50;906.78;;;830.22;;
52067;SDS011;60237;52.338;21.228;2023-07-13T08:13:16;847.03;;;768.58;;
52067;SDS011;60237;52.338;21.228;2023-07-13T08:15:44;837.15;;;767.20;;
52067;SDS011;60237;52.338;21.228;2023-07-13T08:18:11;796.17;;;728.70;;
52067;SDS011;60237;52.338;21.228;2023-07-13T08:20:38;739.92;;;679.03;;
52067;SDS011;60237;52.338;21.228;2023-07-13T08:23:06;715.63;;;655.55;;
52067;SDS011;60237;52.338;21.228;2023-07-13T08:25:33;683.00;;;627.28;;
52067;SDS011;60237;52.338;21.228;2023-07-13T08:28:00;673.25;;;614.45;;
52067;SDS011;60237;52.338;21.228;2023-07-13T08:30:26;659.72;;;599.05;;
52067;SDS011;60237;52.338;21.228;2023-07-13T08:32:53;648.90;;;596.22;;
52067;SDS011;60237;52.338;21.228;2023-07-13T08:35:20;644.05;;;592.63;;
52067;SDS011;60237;52.338;21.228;2023-07-13T08:37:46;634.70;;;583.50;;
52067;SDS011;60237;52.338;21.228;2023-07-13T08:40:13;630.17;;;578.88;;
52067;SDS011;60237;52.338;21.228;2023-07-13T08:42:46;615.72;;;566.35;;
52067;SDS011;60237;52.338;21.228;2023-07-13T08:47:46;602.95;;;555.20;;
52067;SDS011;60237;52.338;21.228;2023-07-13T08:50:15;606.85;;;557.58;;
52067;SDS011;60237;52.338;21.228;2023-07-13T08:52:43;589.38;;;543.70;;
52067;SDS011;60237;52.338;21.228;2023-07-13T08:57:43;593.65;;;547.35;;
52067;SDS011;60237;52.338;21.228;2023-07-13T09:00:11;584.40;;;538.67;;
52067;SDS011;60237;52.338;21.228;2023-07-13T09:05:10;572.47;;;526.88;;
52067;SDS011;60237;52.338;21.228;2023-07-13T09:10:20;603.05;;;550.88;;
52067;SDS011;60237;52.338;21.228;2023-07-13T09:15:30;600.70;;;552.85;;
52067;SDS011;60237;52.338;21.228;2023-07-13T09:18:33;563.53;;;517.53;;
52067;SDS011;60237;52.338;21.228;2023-07-13T09:20:56;548.08;;;499.77;;
52067;SDS011;60237;52.338;21.228;2023-07-13T09:23:24;537.30;;;493.63;;
52067;SDS011;60237;52.338;21.228;2023-07-13T09:25:58;523.30;;;483.15;;
52067;SDS011;60237;52.338;21.228;2023-07-13T09:28:27;492.98;;;455.98;;
52067;SDS011;60237;52.338;21.228;2023-07-13T09:30:56;495.88;;;448.02;;
52067;SDS011;60237;52.338;21.228;2023-07-13T09:33:24;466.23;;;431.30;;
52067;SDS011;60237;52.338;21.228;2023-07-13T09:35:55;463.48;;;428.95;;
52067;SDS011;60237;52.338;21.228;2023-07-13T09:38:26;452.10;;;416.20;;
52067;SDS011;60237;52.338;21.228;2023-07-13T09:43:25;425.77;;;396.17;;
52067;SDS011;60237;52.338;21.228;2023-07-13T09:45:54;426.92;;;392.50;;
52067;SDS011;60237;52.338;21.228;2023-07-13T09:48:20;410.38;;;382.33;;
52067;SDS011;60237;52.338;21.228;2023-07-13T09:50:47;393.10;;;366.63;;
52067;SDS011;60237;52.338;21.228;2023-07-13T09:53:18;395.05;;;368.08;;
52067;SDS011;60237;52.338;21.228;2023-07-13T09:55:46;393.17;;;366.60;;
52067;SDS011;60237;52.338;21.228;2023-07-13T09:58:18;387.08;;;359.73;;
52067;SDS011;60237;52.338;21.228;2023-07-13T10:00:59;368.42;;;342.52;;
52067;SDS011;60237;52.338;21.228;2023-07-13T10:03:27;380.38;;;355.02;;
52067;SDS011;60237;52.338;21.228;2023-07-13T10:05:54;497.00;;;368.58;;
52067;SDS011;60237;52.338;21.228;2023-07-13T10:08:27;380.90;;;353.10;;
52067;SDS011;60237;52.338;21.228;2023-07-13T10:10:58;382.42;;;355.70;;
52067;SDS011;60237;52.338;21.228;2023-07-13T10:15:52;398.20;;;368.88;;
52067;SDS011;60237;52.338;21.228;2023-07-13T10:18:19;384.48;;;357.25;;
52067;SDS011;60237;52.338;21.228;2023-07-13T10:20:47;396.17;;;357.70;;
52067;SDS011;60237;52.338;21.228;2023-07-13T10:23:20;383.58;;;357.02;;
52067;SDS011;60237;52.338;21.228;2023-07-13T10:25:47;376.00;;;350.73;;
52067;SDS011;60237;52.338;21.228;2023-07-13T10:28:28;363.27;;;337.67;;
52067;SDS011;60237;52.338;21.228;2023-07-13T10:30:55;382.38;;;353.77;;
52067;SDS011;60237;52.338;21.228;2023-07-13T10:33:22;372.73;;;347.10;;
52067;SDS011;60237;52.338;21.228;2023-07-13T10:35:51;381.10;;;355.35;;
52067;SDS011;60237;52.338;21.228;2023-07-13T10:38:21;380.17;;;352.95;;
52067;SDS011;60237;52.338;21.228;2023-07-13T10:43:20;382.73;;;355.23;;
52067;SDS011;60237;52.338;21.228;2023-07-13T10:45:48;385.80;;;354.65;;
52067;SDS011;60237;52.338;21.228;2023-07-13T10:48:16;359.67;;;334.55;;
52067;SDS011;60237;52.338;21.228;2023-07-13T10:50:44;376.08;;;350.95;;
52067;SDS011;60237;52.338;21.228;2023-07-13T10:53:22;369.67;;;344.17;;
52067;SDS011;60237;52.338;21.228;2023-07-13T10:58:36;367.80;;;342.92;;
52067;SDS011;60237;52.338;21.228;2023-07-13T11:03:29;365.50;;;336.48;;
52067;SDS011;60237;52.338;21.228;2023-07-13T11:08:52;333.50;;;310.98;;
52067;SDS011;60237;52.338;21.228;2023-07-13T11:18:45;323.85;;;298.73;;
52067;SDS011;60237;52.338;21.228;2023-07-13T11:21:16;323.83;;;290.23;;
52067;SDS011;60237;52.338;21.228;2023-07-13T11:31:41;297.10;;;276.05;;
52067;SDS011;60237;52.338;21.228;2023-07-13T11:34:12;299.10;;;275.05;;
52067;SDS011;60237;52.338;21.228;2023-07-13T11:36:41;294.67;;;273.88;;
52067;SDS011;60237;52.338;21.228;2023-07-13T11:41:43;287.33;;;267.80;;
52067;SDS011;60237;52.338;21.228;2023-07-13T11:44:12;277.50;;;258.92;;
52067;SDS011;60237;52.338;21.228;2023-07-13T11:46:39;271.88;;;252.88;;
52067;SDS011;60237;52.338;21.228;2023-07-13T11:49:11;278.30;;;257.55;;
52067;SDS011;60237;52.338;21.228;2023-07-13T11:51:42;279.55;;;259.58;;
52067;SDS011;60237;52.338;21.228;2023-07-13T11:54:20;279.60;;;260.25;;
52067;SDS011;60237;52.338;21.228;2023-07-13T11:56:48;282.88;;;263.67;;
52067;SDS011;60237;52.338;21.228;2023-07-13T11:59:15;287.70;;;268.45;;
52067;SDS011;60237;52.338;21.228;2023-07-13T12:01:48;266.02;;;248.95;;
52067;SDS011;60237;52.338;21.228;2023-07-13T12:04:24;271.00;;;252.15;;
52067;SDS011;60237;52.338;21.228;2023-07-13T12:06:55;300.75;;;277.27;;
52067;SDS011;60237;52.338;21.228;2023-07-13T12:09:22;275.58;;;257.05;;
52067;SDS011;60237;52.338;21.228;2023-07-13T12:11:51;269.92;;;252.30;;
52067;SDS011;60237;52.338;21.228;2023-07-13T12:14:18;280.58;;;261.13;;
52067;SDS011;60237;52.338;21.228;2023-07-13T12:16:46;264.73;;;247.57;;
52067;SDS011;60237;52.338;21.228;2023-07-13T12:19:23;271.58;;;252.82;;
52067;SDS011;60237;52.338;21.228;2023-07-13T12:21:52;278.50;;;257.80;;
52067;SDS011;60237;52.338;21.228;2023-07-13T12:24:20;256.27;;;239.05;;
52067;SDS011;60237;52.338;21.228;2023-07-13T12:29:19;257.95;;;241.32;;
52067;SDS011;60237;52.338;21.228;2023-07-13T12:31:47;261.55;;;244.35;;
52067;SDS011;60237;52.338;21.228;2023-07-13T12:34:15;269.63;;;250.45;;
52067;SDS011;60237;52.338;21.228;2023-07-13T12:36:46;277.65;;;260.33;;
52067;SDS011;60237;52.338;21.228;2023-07-13T12:39:16;261.63;;;243.63;;
52067;SDS011;60237;52.338;21.228;2023-07-13T12:41:43;260.75;;;243.48;;
52067;SDS011;60237;52.338;21.228;2023-07-13T12:44:12;262.95;;;245.20;;
52067;SDS011;60237;52.338;21.228;2023-07-13T12:46:50;262.73;;;245.27;;
52067;SDS011;60237;52.338;21.228;2023-07-13T12:49:19;259.60;;;241.55;;
52067;SDS011;60237;52.338;21.228;2023-07-13T12:51:56;257.30;;;238.95;;
52067;SDS011;60237;52.338;21.228;2023-07-13T12:54:23;281.25;;;261.52;;
52067;SDS011;60237;52.338;21.228;2023-07-13T12:56:50;251.80;;;234.25;;
52067;SDS011;60237;52.338;21.228;2023-07-13T12:59:20;263.75;;;245.77;;
52067;SDS011;60237;52.338;21.228;2023-07-13T13:01:50;254.82;;;237.05;;
52067;SDS011;60237;52.338;21.228;2023-07-13T13:04:17;259.70;;;241.00;;
52067;SDS011;60237;52.338;21.228;2023-07-13T13:06:48;257.35;;;239.10;;
52067;SDS011;60237;52.338;21.228;2023-07-13T13:09:16;270.50;;;251.05;;
52067;SDS011;60237;52.338;21.228;2023-07-13T13:11:45;264.35;;;246.90;;
52067;SDS011;60237;52.338;21.228;2023-07-13T13:14:11;249.65;;;232.52;;
52067;SDS011;60237;52.338;21.228;2023-07-13T13:16:48;245.40;;;228.27;;
52067;SDS011;60237;52.338;21.228;2023-07-13T13:19:25;257.83;;;239.40;;
52067;SDS011;60237;52.338;21.228;2023-07-13T13:21:53;264.65;;;243.80;;
52067;SDS011;60237;52.338;21.228;2023-07-13T13:24:21;268.98;;;248.63;;
52067;SDS011;60237;52.338;21.228;2023-07-13T13:26:51;264.50;;;246.60;;
52067;SDS011;60237;52.338;21.228;2023-07-13T13:29:21;256.17;;;240.20;;
52067;SDS011;60237;52.338;21.228;2023-07-13T13:31:51;263.60;;;245.65;;
52067;SDS011;60237;52.338;21.228;2023-07-13T13:34:20;258.20;;;240.30;;
52067;SDS011;60237;52.338;21.228;2023-07-13T13:36:47;243.32;;;226.95;;
52067;SDS011;60237;52.338;21.228;2023-07-13T13:39:19;252.57;;;235.57;;
52067;SDS011;60237;52.338;21.228;2023-07-13T13:41:47;259.80;;;242.40;;
52067;SDS011;60237;52.338;21.228;2023-07-13T13:44:15;265.52;;;246.82;;
52067;SDS011;60237;52.338;21.228;2023-07-13T13:46:43;251.77;;;234.68;;
52067;SDS011;60237;52.338;21.228;2023-07-13T13:49:17;260.80;;;241.35;;
52067;SDS011;60237;52.338;21.228;2023-07-13T13:51:45;249.57;;;232.55;;
52067;SDS011;60237;52.338;21.228;2023-07-13T13:54:12;261.05;;;242.82;;
52067;SDS011;60237;52.338;21.228;2023-07-13T13:56:43;256.27;;;237.18;;
52067;SDS011;60237;52.338;21.228;2023-07-13T13:59:13;285.20;;;262.55;;
52067;SDS011;60237;52.338;21.228;2023-07-13T14:01:41;273.88;;;254.45;;
52067;SDS011;60237;52.338;21.228;2023-07-13T14:04:27;278.13;;;255.35;;
52067;SDS011;60237;52.338;21.228;2023-07-13T14:06:54;261.67;;;241.20;;
52067;SDS011;60237;52.338;21.228;2023-07-13T14:09:21;253.52;;;236.18;;
52067;SDS011;60237;52.338;21.228;2023-07-13T14:11:48;252.00;;;234.57;;
52067;SDS011;60237;52.338;21.228;2023-07-13T14:14:23;266.27;;;246.75;;
52067;SDS011;60237;52.338;21.228;2023-07-13T14:16:50;269.77;;;252.18;;
52067;SDS011;60237;52.338;21.228;2023-07-13T14:19:22;263.83;;;244.98;;
52067;SDS011;60237;52.338;21.228;2023-07-13T14:21:48;277.10;;;257.83;;
52067;SDS011;60237;52.338;21.228;2023-07-13T14:24:16;261.17;;;243.55;;
52067;SDS011;60237;52.338;21.228;2023-07-13T14:26:45;274.58;;;255.25;;
52067;SDS011;60237;52.338;21.228;2023-07-13T14:29:13;270.95;;;252.15;;
52067;SDS011;60237;52.338;21.228;2023-07-13T14:31:41;270.05;;;252.13;;
52067;SDS011;60237;52.338;21.228;2023-07-13T14:34:09;273.35;;;249.60;;
52067;SDS011;60237;52.338;21.228;2023-07-13T14:36:38;261.85;;;243.60;;
52067;SDS011;60237;52.338;21.228;2023-07-13T14:39:11;275.77;;;256.73;;
52067;SDS011;60237;52.338;21.228;2023-07-13T14:44:12;279.42;;;260.70;;
52067;SDS011;60237;52.338;21.228;2023-07-13T14:46:39;266.73;;;248.85;;
52067;SDS011;60237;52.338;21.228;2023-07-13T14:51:54;283.73;;;261.15;;
52067;SDS011;60237;52.338;21.228;2023-07-13T14:54:21;279.50;;;260.25;;
52067;SDS011;60237;52.338;21.228;2023-07-13T14:56:48;276.77;;;258.25;;
52067;SDS011;60237;52.338;21.228;2023-07-13T14:59:15;274.90;;;254.57;;
52067;SDS011;60237;52.338;21.228;2023-07-13T15:01:41;297.88;;;277.83;;
52067;SDS011;60237;52.338;21.228;2023-07-13T15:04:08;313.58;;;287.90;;
52067;SDS011;60237;52.338;21.228;2023-07-13T15:06:52;286.88;;;267.50;;
52067;SDS011;60237;52.338;21.228;2023-07-13T15:09:19;301.65;;;279.88;;